Time;durP1;ratioP1;P1;durP2;ratioP2;P2;SDS_P1;SDS_P2;PMS_P1;PMS_P2;Temp;Humidity;BMP_temperature;BMP_pressure;BME280_temperature;BME280_humidity;BME280_pressure;Samples;Min_cycle;Max_cycle;Signal;HPM_P1;HPM_P2
2021/06/24 00:01:25;;;;;;;6.07;4.70;;;;;;;;;;5073511;28;20220;-62
2021/06/24 00:03:51;;;;;;;7.80;5.77;;;;;;;;;;5074149;28;20236;-62
2021/06/24 00:06:16;;;;;;;5.47;4.63;;;;;;;;;;5073571;28;20307;-61
2021/06/24 00:08:41;;;;;;;5.07;4.60;;;;;;;;;;5058966;28;20228;-62
2021/06/24 00:11:09;;;;;;;7.20;5.70;;;;;;;;;;5053973;28;20258;-62
2021/06/24 00:13:34;;;;;;;5.17;4.70;;;;;;;;;;5053439;28;20640;-61
2021/06/24 00:16:00;;;;;;;7.37;5.23;;;;;;;;;;5053917;28;20463;-62
2021/06/24 00:18:25;;;;;;;5.73;4.57;;;;;;;;;;5053575;28;20223;-63
2021/06/24 00:20:51;;;;;;;6.27;5.10;;;;;;;;;;5053768;28;20236;-63
2021/06/24 00:23:17;;;;;;;5.60;5.10;;;;;;;;;;5053359;28;20315;-63
2021/06/24 00:25:42;;;;;;;7.07;5.50;;;;;;;;;;5053792;28;20641;-62
2021/06/24 00:28:08;;;;;;;5.17;4.63;;;;;;;;;;5053628;28;20329;-62
2021/06/24 00:30:37;;;;;;;5.83;5.27;;;;;;;;;;5053380;28;20221;-62
2021/06/24 00:33:03;;;;;;;4.53;4.10;;;;;;;;;;5053710;28;20623;-62
2021/06/24 00:35:28;;;;;;;6.20;5.57;;;;;;;;;;5053223;28;20460;-61
2021/06/24 00:37:54;;;;;;;6.03;4.70;;;;;;;;;;5053720;28;20448;-62
2021/06/24 00:40:19;;;;;;;6.00;4.80;;;;;;;;;;5064721;28;20295;-62
2021/06/24 00:42:45;;;;;;;4.77;4.37;;;;;;;;;;5073414;28;20224;-62
2021/06/24 00:45:12;;;;;;;6.57;4.60;;;;;;;;;;5073783;28;20217;-62
2021/06/24 00:47:38;;;;;;;5.07;4.67;;;;;;;;;;5073455;28;20209;-62
2021/06/24 00:50:08;;;;;;;7.77;4.90;;;;;;;;;;5073358;28;20463;-62
2021/06/24 00:52:33;;;;;;;7.43;5.00;;;;;;;;;;5060756;28;20787;-62
2021/06/24 00:54:59;;;;;;;5.40;4.87;;;;;;;;;;5054361;28;20517;-62
2021/06/24 00:57:25;;;;;;;5.87;4.70;;;;;;;;;;5056746;28;20270;-62
2021/06/24 00:59:50;;;;;;;6.23;4.80;;;;;;;;;;5057317;28;20307;-62
2021/06/24 01:02:15;;;;;;;6.07;4.77;;;;;;;;;;5056965;28;20519;-62
2021/06/24 01:04:41;;;;;;;5.23;4.83;;;;;;;;;;5056287;28;20263;-62
2021/06/24 01:07:06;;;;;;;7.00;5.40;;;;;;;;;;5057138;28;20669;-62
2021/06/24 01:09:32;;;;;;;6.43;5.83;;;;;;;;;;5056599;28;20304;-63
2021/06/24 01:12:01;;;;;;;7.40;5.30;;;;;;;;;;5056098;28;20656;-63
2021/06/24 01:14:26;;;;;;;5.87;4.40;;;;;;;;;;5056642;28;20456;-62
2021/06/24 01:16:53;;;;;;;6.13;4.73;;;;;;;;;;5056790;28;20464;-63
2021/06/24 01:19:18;;;;;;;8.30;4.37;;;;;;;;;;5055407;28;20657;-62
2021/06/24 01:21:44;;;;;;;4.97;4.47;;;;;;;;;;5057013;28;20478;-63
2021/06/24 01:24:10;;;;;;;5.10;4.70;;;;;;;;;;5056839;28;20266;-62
2021/06/24 01:26:37;;;;;;;6.47;4.70;;;;;;;;;;5056654;28;20540;-62
2021/06/24 01:29:03;;;;;;;5.47;4.97;;;;;;;;;;5056779;28;20589;-62
2021/06/24 01:31:28;;;;;;;5.37;4.73;;;;;;;;;;5056298;28;20456;-61
2021/06/24 01:33:53;;;;;;;8.83;4.80;;;;;;;;;;5056568;28;20657;-61
2021/06/24 01:36:19;;;;;;;5.07;4.67;;;;;;;;;;5056144;28;20224;-61
2021/06/24 01:38:44;;;;;;;6.10;5.50;;;;;;;;;;5056487;28;20583;-62
2021/06/24 01:41:13;;;;;;;6.70;4.50;;;;;;;;;;5074820;28;20243;-62
2021/06/24 01:43:39;;;;;;;5.23;4.43;;;;;;;;;;5076138;28;20534;-62
2021/06/24 01:46:04;;;;;;;6.83;4.13;;;;;;;;;;5076625;28;20455;-62
2021/06/24 01:48:30;;;;;;;4.97;4.50;;;;;;;;;;5075993;28;20216;-62
2021/06/24 01:50:57;;;;;;;5.60;5.10;;;;;;;;;;5076451;28;20232;-62
2021/06/24 01:53:23;;;;;;;5.70;4.33;;;;;;;;;;5056607;28;20305;-63
2021/06/24 01:55:48;;;;;;;5.10;4.60;;;;;;;;;;5056363;28;20541;-63
2021/06/24 01:58:17;;;;;;;5.30;4.80;;;;;;;;;;5056464;28;20210;-63
2021/06/24 02:00:43;;;;;;;4.93;4.43;;;;;;;;;;5055816;28;20217;-61
2021/06/24 02:03:08;;;;;;;6.77;5.13;;;;;;;;;;5056321;28;20463;-63
2021/06/24 02:05:33;;;;;;;8.60;5.40;;;;;;;;;;5055322;28;20943;-62
2021/06/24 02:07:59;;;;;;;4.80;4.33;;;;;;;;;;5055872;28;20221;-62
2021/06/24 02:10:24;;;;;;;8.13;4.70;;;;;;;;;;5055468;28;20228;-62
2021/06/24 02:12:49;;;;;;;5.10;4.40;;;;;;;;;;5056093;28;20224;-62
2021/06/24 02:15:15;;;;;;;5.17;4.77;;;;;;;;;;5055847;28;20656;-62
2021/06/24 02:17:40;;;;;;;5.00;4.47;;;;;;;;;;5055353;28;20209;-62
2021/06/24 02:20:08;;;;;;;5.30;4.20;;;;;;;;;;5055921;28;20286;-61
2021/06/24 02:22:34;;;;;;;5.03;4.63;;;;;;;;;;5055252;28;20239;-62
2021/06/24 02:24:59;;;;;;;5.37;4.83;;;;;;;;;;5055750;28;20455;-62
2021/06/24 02:27:25;;;;;;;7.07;4.67;;;;;;;;;;5055273;28;20527;-62
2021/06/24 02:29:50;;;;;;;5.30;4.80;;;;;;;;;;5055750;28;20222;-62
2021/06/24 02:32:15;;;;;;;5.40;4.87;;;;;;;;;;5055846;28;20322;-63
2021/06/24 02:34:42;;;;;;;7.13;4.70;;;;;;;;;;5055082;28;20236;-62
2021/06/24 02:37:07;;;;;;;4.40;4.10;;;;;;;;;;5055712;28;20602;-62
2021/06/24 02:39:33;;;;;;;4.93;4.47;;;;;;;;;;5059884;28;20459;-62
2021/06/24 02:41:59;;;;;;;5.17;4.67;;;;;;;;;;5075171;28;20240;-63
2021/06/24 02:44:25;;;;;;;7.67;5.03;;;;;;;;;;5074769;28;20209;-62
2021/06/24 02:46:50;;;;;;;5.53;4.60;;;;;;;;;;5074286;28;20516;-62
2021/06/24 02:49:15;;;;;;;4.60;4.20;;;;;;;;;;5075292;28;20516;-62
2021/06/24 02:51:41;;;;;;;6.10;4.63;;;;;;;;;;5069438;28;20213;-62
2021/06/24 02:54:06;;;;;;;4.77;4.27;;;;;;;;;;5054208;28;20232;-62
2021/06/24 02:56:33;;;;;;;6.47;4.30;;;;;;;;;;5053668;28;20726;-61
2021/06/24 02:58:58;;;;;;;6.20;4.73;;;;;;;;;;5055041;28;20221;-62
2021/06/24 03:01:23;;;;;;;7.30;4.70;;;;;;;;;;5053403;28;20529;-62
2021/06/24 03:03:49;;;;;;;5.63;4.10;;;;;;;;;;5054868;28;20300;-62
2021/06/24 03:06:14;;;;;;;10.57;4.90;;;;;;;;;;5054874;28;20290;-62
2021/06/24 03:08:39;;;;;;;6.50;5.27;;;;;;;;;;5054332;28;20300;-63
2021/06/24 03:11:05;;;;;;;6.63;4.33;;;;;;;;;;5054862;28;20676;-62
2021/06/24 03:13:30;;;;;;;5.27;4.77;;;;;;;;;;5054418;28;20209;-61
2021/06/24 03:15:55;;;;;;;5.43;4.23;;;;;;;;;;5054658;28;20220;-62
2021/06/24 03:18:20;;;;;;;5.33;4.80;;;;;;;;;;5054065;28;20213;-62
2021/06/24 03:20:46;;;;;;;5.87;4.10;;;;;;;;;;5054182;28;20320;-63
2021/06/24 03:23:11;;;;;;;8.00;4.77;;;;;;;;;;5054591;28;20228;-62
2021/06/24 03:25:37;;;;;;;6.00;5.10;;;;;;;;;;5054285;28;20304;-62
2021/06/24 03:28:02;;;;;;;9.40;5.27;;;;;;;;;;5054464;28;20304;-61
2021/06/24 03:30:27;;;;;;;5.00;4.50;;;;;;;;;;5053830;28;20588;-62
2021/06/24 03:32:53;;;;;;;7.00;4.97;;;;;;;;;;5054391;28;20213;-63
2021/06/24 03:35:18;;;;;;;7.10;5.17;;;;;;;;;;5054527;28;20240;-63
2021/06/24 03:37:43;;;;;;;6.50;5.60;;;;;;;;;;5052851;28;20695;-62
2021/06/24 03:40:10;;;;;;;8.00;5.63;;;;;;;;;;5063951;28;20212;-62
2021/06/24 03:42:35;;;;;;;6.87;5.27;;;;;;;;;;5073620;28;20262;-62
2021/06/24 03:45:03;;;;;;;7.20;4.77;;;;;;;;;;5074052;28;20458;-62
2021/06/24 03:47:28;;;;;;;5.93;4.70;;;;;;;;;;5073806;28;20660;-60
2021/06/24 03:49:53;;;;;;;6.13;5.53;;;;;;;;;;5074067;28;20549;-62
2021/06/24 03:52:19;;;;;;;4.97;4.57;;;;;;;;;;5063659;28;20224;-62
2021/06/24 03:54:44;;;;;;;5.63;5.13;;;;;;;;;;5053638;28;20219;-62
2021/06/24 03:57:09;;;;;;;7.47;5.50;;;;;;;;;;5053932;28;20746;-62
2021/06/24 03:59:35;;;;;;;5.80;5.00;;;;;;;;;;5053480;28;20221;-62
2021/06/24 04:02:00;;;;;;;9.17;6.47;;;;;;;;;;5054148;28;20304;-62
2021/06/24 04:04:25;;;;;;;7.13;5.27;;;;;;;;;;5052281;28;20400;-61
2021/06/24 04:06:50;;;;;;;11.33;5.70;;;;;;;;;;5051043;28;20303;-61
2021/06/24 04:09:16;;;;;;;6.73;5.27;;;;;;;;;;5047884;28;20633;-62
2021/06/24 04:11:41;;;;;;;7.73;5.23;;;;;;;;;;5062958;28;20263;-62
2021/06/24 04:14:07;;;;;;;9.00;5.23;;;;;;;;;;5061935;28;20216;-61
2021/06/24 04:16:32;;;;;;;7.10;4.97;;;;;;;;;;5059719;28;20345;-63
2021/06/24 04:18:57;;;;;;;6.40;5.70;;;;;;;;;;5065304;28;20565;-62
2021/06/24 04:21:23;;;;;;;6.13;5.03;;;;;;;;;;5066942;28;20303;-61
2021/06/24 04:23:48;;;;;;;7.03;5.43;;;;;;;;;;5050299;28;20529;-62
2021/06/24 04:26:13;;;;;;;6.37;5.40;;;;;;;;;;5060471;28;20236;-61
2021/06/24 04:28:39;;;;;;;5.70;4.63;;;;;;;;;;5065140;28;20241;-61
2021/06/24 04:31:04;;;;;;;8.60;5.63;;;;;;;;;;5069955;28;20305;-61
2021/06/24 04:33:29;;;;;;;8.10;5.57;;;;;;;;;;5065205;28;20216;-59
2021/06/24 04:35:54;;;;;;;8.70;6.20;;;;;;;;;;5064042;28;20542;-61
2021/06/24 04:38:20;;;;;;;9.37;6.60;;;;;;;;;;5070150;28;20237;-61
2021/06/24 04:40:45;;;;;;;7.87;5.20;;;;;;;;;;5066567;28;20252;-62
2021/06/24 04:43:10;;;;;;;6.30;5.70;;;;;;;;;;5064893;28;20241;-61
2021/06/24 04:45:35;;;;;;;7.20;5.10;;;;;;;;;;5063496;28;20236;-61
2021/06/24 04:48:01;;;;;;;5.57;5.03;;;;;;;;;;5069920;28;20691;-61
2021/06/24 04:50:26;;;;;;;7.40;5.50;;;;;;;;;;5070305;28;20231;-61
2021/06/24 04:52:51;;;;;;;6.33;5.77;;;;;;;;;;5072105;28;20262;-61
2021/06/24 04:55:17;;;;;;;9.30;6.30;;;;;;;;;;5063765;28;20213;-62
2021/06/24 04:57:42;;;;;;;7.13;5.70;;;;;;;;;;5049762;28;20222;-61
2021/06/24 05:00:09;;;;;;;7.17;6.03;;;;;;;;;;5063893;28;20303;-61
2021/06/24 05:02:34;;;;;;;9.20;5.70;;;;;;;;;;5049987;28;20277;-61
2021/06/24 05:05:01;;;;;;;10.97;6.10;;;;;;;;;;5063630;28;20463;-62
2021/06/24 05:07:26;;;;;;;7.00;6.30;;;;;;;;;;5045176;28;20213;-62
2021/06/24 05:09:51;;;;;;;8.37;5.87;;;;;;;;;;5069384;28;20465;-61
2021/06/24 05:12:17;;;;;;;8.20;5.43;;;;;;;;;;5063265;28;20303;-62
2021/06/24 05:14:42;;;;;;;6.90;5.90;;;;;;;;;;5063350;28;20228;-61
2021/06/24 05:17:13;;;;;;;7.10;6.13;;;;;;;;;;5069997;28;20283;-62
2021/06/24 05:19:38;;;;;;;8.13;5.60;;;;;;;;;;5069770;28;20227;-61
2021/06/24 05:22:03;;;;;;;7.23;6.17;;;;;;;;;;5063446;28;20790;-62
2021/06/24 05:24:29;;;;;;;9.53;5.43;;;;;;;;;;5063113;28;20217;-62
2021/06/24 05:26:54;;;;;;;7.27;6.40;;;;;;;;;;5069952;28;20582;-61
2021/06/24 05:29:19;;;;;;;9.03;6.07;;;;;;;;;;5069762;28;20228;-61
2021/06/24 05:31:45;;;;;;;7.47;6.60;;;;;;;;;;5062371;28;20675;-62
2021/06/24 05:34:10;;;;;;;6.47;5.77;;;;;;;;;;5063928;28;20213;-62
2021/06/24 05:36:37;;;;;;;8.43;5.93;;;;;;;;;;5069379;28;20217;-62
2021/06/24 05:39:02;;;;;;;10.03;7.00;;;;;;;;;;5068936;28;20216;-63
2021/06/24 05:41:28;;;;;;;11.73;7.23;;;;;;;;;;5062471;28;20969;-63
2021/06/24 05:43:53;;;;;;;7.37;6.53;;;;;;;;;;5063053;28;20220;-63
2021/06/24 05:46:19;;;;;;;7.07;6.17;;;;;;;;;;5069654;28;20217;-63
2021/06/24 05:48:44;;;;;;;9.07;7.50;;;;;;;;;;5068488;28;20680;-61
2021/06/24 05:51:09;;;;;;;11.50;7.37;;;;;;;;;;5062670;28;20220;-62
2021/06/24 05:53:35;;;;;;;9.37;6.87;;;;;;;;;;5063974;28;20213;-62
2021/06/24 05:56:00;;;;;;;8.43;7.63;;;;;;;;;;5069924;28;20337;-62
2021/06/24 05:58:27;;;;;;;8.47;7.73;;;;;;;;;;5049862;28;20222;-62
2021/06/24 06:00:56;;;;;;;8.93;8.00;;;;;;;;;;5062002;28;20240;-62
2021/06/24 06:03:22;;;;;;;11.70;7.90;;;;;;;;;;5063962;28;20464;-63
2021/06/24 06:05:48;;;;;;;11.03;8.70;;;;;;;;;;5068558;28;20505;-64
2021/06/24 06:08:14;;;;;;;10.63;8.70;;;;;;;;;;5055843;28;20472;-64
2021/06/24 06:10:40;;;;;;;9.27;8.40;;;;;;;;;;5068653;28;20812;-63
2021/06/24 06:13:06;;;;;;;9.13;8.17;;;;;;;;;;5059373;28;20668;-64
2021/06/24 06:15:35;;;;;;;9.67;8.30;;;;;;;;;;5068552;28;20458;-62
2021/06/24 06:18:00;;;;;;;10.10;7.70;;;;;;;;;;5056245;28;20486;-62
2021/06/24 06:20:26;;;;;;;10.07;8.30;;;;;;;;;;5067847;28;20509;-63
2021/06/24 06:22:51;;;;;;;9.53;8.07;;;;;;;;;;5067498;28;20229;-63
2021/06/24 06:25:16;;;;;;;11.20;7.97;;;;;;;;;;5062280;28;20217;-63
2021/06/24 06:27:42;;;;;;;10.20;7.77;;;;;;;;;;5067483;28;20217;-63
2021/06/24 06:30:08;;;;;;;10.27;8.30;;;;;;;;;;5068893;28;20216;-63
2021/06/24 06:32:34;;;;;;;14.03;9.07;;;;;;;;;;5055725;28;20649;-62
2021/06/24 06:34:59;;;;;;;12.83;8.10;;;;;;;;;;5068590;28;20464;-63
2021/06/24 06:37:24;;;;;;;9.20;8.27;;;;;;;;;;5062694;28;20218;-63
2021/06/24 06:39:50;;;;;;;10.30;9.00;;;;;;;;;;5068170;28;20520;-63
2021/06/24 06:42:15;;;;;;;10.73;9.57;;;;;;;;;;5067789;28;20228;-63
2021/06/24 06:44:40;;;;;;;13.10;10.10;;;;;;;;;;5067898;28;20574;-62
2021/06/24 06:47:06;;;;;;;9.50;8.60;;;;;;;;;;5062092;28;20223;-63
2021/06/24 06:49:31;;;;;;;9.83;8.83;;;;;;;;;;5061334;28;20559;-63
2021/06/24 06:51:56;;;;;;;10.00;8.63;;;;;;;;;;5063840;28;20285;-63
2021/06/24 06:54:21;;;;;;;12.37;8.67;;;;;;;;;;5061452;28;20715;-63
2021/06/24 06:56:47;;;;;;;10.43;9.10;;;;;;;;;;5067997;28;20229;-63
2021/06/24 06:59:13;;;;;;;13.80;9.17;;;;;;;;;;5067296;28;20254;-63
2021/06/24 07:01:38;;;;;;;10.40;9.40;;;;;;;;;;5059974;28;20709;-63
2021/06/24 07:04:04;;;;;;;10.30;9.33;;;;;;;;;;5062159;28;20463;-63
2021/06/24 07:06:29;;;;;;;9.63;7.70;;;;;;;;;;5065076;28;20215;-63
2021/06/24 07:08:56;;;;;;;10.50;9.50;;;;;;;;;;5051102;28;20320;-63
2021/06/24 07:11:21;;;;;;;8.63;7.83;;;;;;;;;;5067313;28;20372;-62
2021/06/24 07:13:53;;;;;;;10.03;8.87;;;;;;;;;;5051187;28;20543;-62
2021/06/24 07:16:19;;;;;;;14.93;9.47;;;;;;;;;;5050886;28;20452;-63
2021/06/24 07:18:45;;;;;;;8.33;7.53;;;;;;;;;;5051797;28;20247;-63
2021/06/24 07:21:10;;;;;;;9.40;7.43;;;;;;;;;;5050568;28;20263;-62
2021/06/24 07:23:36;;;;;;;9.73;8.00;;;;;;;;;;5050893;28;20472;-62
2021/06/24 07:26:02;;;;;;;13.57;9.27;;;;;;;;;;5050864;28;20224;-62
2021/06/24 07:28:27;;;;;;;10.23;9.23;;;;;;;;;;5050450;28;20263;-62
2021/06/24 07:30:52;;;;;;;11.47;10.27;;;;;;;;;;5050695;28;20629;-63
2021/06/24 07:33:18;;;;;;;10.33;9.30;;;;;;;;;;5050288;28;20527;-63
2021/06/24 07:35:43;;;;;;;10.93;9.83;;;;;;;;;;5050850;28;20611;-63
2021/06/24 07:38:09;;;;;;;11.37;9.60;;;;;;;;;;5050316;28;20308;-63
2021/06/24 07:40:34;;;;;;;9.37;8.43;;;;;;;;;;5050367;28;20649;-63
2021/06/24 07:42:59;;;;;;;9.20;8.30;;;;;;;;;;5050477;28;20217;-63
2021/06/24 07:45:26;;;;;;;16.23;9.73;;;;;;;;;;5050510;28;20628;-63
2021/06/24 07:47:51;;;;;;;16.60;10.53;;;;;;;;;;5048942;28;20222;-63
2021/06/24 07:50:16;;;;;;;11.70;10.67;;;;;;;;;;5050048;28;20464;-62
2021/06/24 07:52:41;;;;;;;13.17;11.50;;;;;;;;;;5053025;28;20221;-63
2021/06/24 07:55:07;;;;;;;11.80;9.63;;;;;;;;;;5050565;28;20229;-63
2021/06/24 07:57:33;;;;;;;10.53;9.30;;;;;;;;;;5049963;28;20563;-63
2021/06/24 07:59:58;;;;;;;11.80;8.97;;;;;;;;;;5050486;28;20787;-63
2021/06/24 08:02:24;;;;;;;14.00;9.67;;;;;;;;;;5049595;28;20252;-63
2021/06/24 08:04:49;;;;;;;13.67;12.20;;;;;;;;;;5050456;28;20221;-62
2021/06/24 08:07:14;;;;;;;15.07;9.87;;;;;;;;;;5039201;28;20424;-63
2021/06/24 08:09:40;;;;;;;12.70;9.93;;;;;;;;;;5050157;28;20312;-63
2021/06/24 08:12:05;;;;;;;11.23;9.87;;;;;;;;;;5049737;28;20260;-63
2021/06/24 08:14:31;;;;;;;10.10;8.93;;;;;;;;;;5049391;28;20225;-63
2021/06/24 08:16:56;;;;;;;12.57;10.50;;;;;;;;;;5050233;28;20217;-63
2021/06/24 08:19:21;;;;;;;12.67;11.47;;;;;;;;;;5043890;28;20749;-62
2021/06/24 08:21:47;;;;;;;11.57;10.20;;;;;;;;;;5049936;28;20218;-63
2021/06/24 08:24:12;;;;;;;8.97;8.17;;;;;;;;;;5041943;28;20253;-64
2021/06/24 08:26:37;;;;;;;11.37;10.43;;;;;;;;;;5036842;28;20225;-62
2021/06/24 08:29:03;;;;;;;11.90;10.67;;;;;;;;;;5036387;28;20559;-63
2021/06/24 08:31:28;;;;;;;11.90;10.80;;;;;;;;;;5036026;28;20298;-63
2021/06/24 08:33:53;;;;;;;12.93;11.30;;;;;;;;;;5036519;28;20221;-62
2021/06/24 08:36:19;;;;;;;12.80;10.93;;;;;;;;;;5036398;28;20261;-63
2021/06/24 08:38:45;;;;;;;13.50;10.50;;;;;;;;;;5036213;28;20231;-63
2021/06/24 08:41:13;;;;;;;14.07;11.17;;;;;;;;;;5036165;28;20560;-63
2021/06/24 08:43:39;;;;;;;12.27;9.10;;;;;;;;;;5035911;28;20225;-63
2021/06/24 08:46:05;;;;;;;9.77;8.70;;;;;;;;;;5036311;28;20854;-62
2021/06/24 08:48:35;;;;;;;11.23;9.93;;;;;;;;;;5035867;28;20225;-63
2021/06/24 08:51:01;;;;;;;11.20;10.00;;;;;;;;;;5036215;28;20237;-63
2021/06/24 08:53:26;;;;;;;11.30;9.60;;;;;;;;;;5035608;28;20811;-63
2021/06/24 08:55:53;;;;;;;12.50;10.07;;;;;;;;;;5035451;28;20548;-63
2021/06/24 08:58:20;;;;;;;12.00;9.70;;;;;;;;;;5035678;28;20682;-63
2021/06/24 09:00:45;;;;;;;9.90;8.90;;;;;;;;;;5036025;28;20465;-63
2021/06/24 09:03:27;;;;;;;13.57;12.13;;;;;;;;;;5035959;28;20994;-63
2021/06/24 09:06:00;;;;;;;13.70;10.97;;;;;;;;;;5033809;28;20602;-63
2021/06/24 09:08:53;;;;;;;16.93;11.30;;;;;;;;;;5028376;28;20463;-63
2021/06/24 09:11:20;;;;;;;12.53;10.37;;;;;;;;;;5022215;28;20955;-63
2021/06/24 09:14:06;;;;;;;10.90;9.80;;;;;;;;;;5026207;28;20488;-62
2021/06/24 09:16:34;;;;;;;8.93;8.03;;;;;;;;;;5053703;28;20914;-62
2021/06/24 09:19:24;;;;;;;11.37;10.27;;;;;;;;;;5061987;28;20503;-63
2021/06/24 09:22:08;;;;;;;10.87;9.77;;;;;;;;;;5062447;28;20943;-63
2021/06/24 09:24:37;;;;;;;11.07;8.83;;;;;;;;;;5052262;28;20508;-63
2021/06/24 09:27:36;;;;;;;12.20;10.63;;;;;;;;;;5058517;28;20482;-63
2021/06/24 09:30:35;;;;;;;13.53;10.13;;;;;;;;;;5039276;28;20479;-62
2021/06/24 09:33:42;;;;;;;10.00;8.57;;;;;;;;;;5041816;28;20564;-63
2021/06/24 09:36:51;;;;;;;;;;;;;;;;;;;;;
2021/06/24 09:39:34;;;;;;;9.23;8.53;;;;;;;;;;5017048;28;20822;-63
2021/06/24 09:42:33;;;;;;;8.40;7.40;;;;;;;;;;5035624;28;20468;-62
2021/06/24 09:45:16;;;;;;;12.53;8.37;;;;;;;;;;5054149;28;20787;-63
2021/06/24 09:47:58;;;;;;;11.80;8.87;;;;;;;;;;5042327;28;20561;-62
2021/06/24 09:50:26;;;;;;;9.43;8.40;;;;;;;;;;5047360;28;20635;-63
2021/06/24 09:53:33;;;;;;;8.43;7.63;;;;;;;;;;5040789;28;20637;-63
2021/06/24 09:56:46;;;;;;;12.20;9.13;;;;;;;;;;5020678;28;21050;-63
2021/06/24 10:03:26;;;;;;;10.20;8.80;;;;;;;;;;5045381;28;20591;-62
2021/06/24 10:09:55;;;;;;;11.17;10.07;;;;;;;;;;5002205;28;20484;-63
2021/06/24 10:13:21;;;;;;;11.30;8.93;;;;;;;;;;4964597;28;20480;-63
2021/06/24 10:16:18;;;;;;;9.80;8.83;;;;;;;;;;4973456;28;20560;-63
2021/06/24 10:22:16;;;;;;;10.90;9.80;;;;;;;;;;5014592;23;20552;-63
2021/06/24 10:25:23;;;;;;;;;;;;;;;;;;;;;
2021/06/24 10:28:43;;;;;;;12.73;11.33;;;;;;;;;;5021829;28;20989;-62
2021/06/24 10:34:50;;;;;;;11.40;10.20;;;;;;;;;;4979799;28;20557;-60
2021/06/24 10:37:21;;;;;;;12.37;10.90;;;;;;;;;;4995012;28;20470;-60
2021/06/24 10:39:46;;;;;;;11.23;10.13;;;;;;;;;;5001127;28;20481;-60
2021/06/24 10:42:15;;;;;;;11.50;10.07;;;;;;;;;;5014266;28;20493;-59
2021/06/24 10:44:50;;;;;;;9.80;8.80;;;;;;;;;;5014510;28;20253;-59
2021/06/24 10:47:28;;;;;;;8.70;7.90;;;;;;;;;;5014049;28;21393;-59
2021/06/24 10:49:53;;;;;;;9.40;8.50;;;;;;;;;;5023211;28;20480;-60
2021/06/24 10:52:27;;;;;;;10.23;8.97;;;;;;;;;;5017511;28;20496;-60
2021/06/24 10:54:53;;;;;;;9.27;8.40;;;;;;;;;;5024165;28;20674;-61
2021/06/24 10:57:37;;;;;;;10.50;8.97;;;;;;;;;;5020495;28;20464;-60
2021/06/24 11:00:37;;;;;;;12.43;9.00;;;;;;;;;;5019192;28;20465;-60
2021/06/24 11:03:04;;;;;;;10.97;8.00;;;;;;;;;;5023957;28;20481;-59
2021/06/24 11:05:48;;;;;;;9.67;8.67;;;;;;;;;;5020163;28;20526;-60
2021/06/24 11:08:18;;;;;;;13.77;9.50;;;;;;;;;;5008191;28;20909;-59
2021/06/24 11:10:53;;;;;;;11.03;9.93;;;;;;;;;;5020448;28;20461;-59
2021/06/24 11:13:43;;;;;;;11.93;10.30;;;;;;;;;;5019869;28;20457;-60
2021/06/24 11:16:15;;;;;;;10.83;9.77;;;;;;;;;;5022486;28;20526;-59
2021/06/24 11:18:40;;;;;;;11.50;10.30;;;;;;;;;;5030855;28;20466;-59
2021/06/24 11:21:09;;;;;;;9.50;8.60;;;;;;;;;;5032940;28;20465;-61
2021/06/24 11:23:46;;;;;;;11.67;10.57;;;;;;;;;;5015537;28;20218;-59
2021/06/24 11:26:14;;;;;;;13.60;10.87;;;;;;;;;;5025785;28;20463;-60
2021/06/24 11:28:43;;;;;;;11.57;10.37;;;;;;;;;;5019731;28;20456;-59
2021/06/24 11:31:09;;;;;;;11.67;10.53;;;;;;;;;;5020337;28;20830;-59
2021/06/24 11:33:40;;;;;;;11.63;10.60;;;;;;;;;;5026726;28;20559;-60
2021/06/24 11:36:19;;;;;;;9.83;9.07;;;;;;;;;;5025895;28;20649;-59
2021/06/24 11:38:49;;;;;;;9.23;7.50;;;;;;;;;;5021471;28;21001;-59
2021/06/24 11:41:19;;;;;;;12.63;8.87;;;;;;;;;;5026781;28;20480;-59
2021/06/24 11:44:00;;;;;;;10.07;9.13;;;;;;;;;;5022573;28;20488;-58
2021/06/24 11:46:29;;;;;;;9.60;6.90;;;;;;;;;;5018442;28;20453;-59
2021/06/24 12:05:23;;;;;;;8.20;4.97;;;;;;;;;;5023644;28;20468;-59
2021/06/24 12:07:49;;;;;;;5.60;5.10;;;;;;;;;;5018162;28;20466;-59
2021/06/24 12:10:20;;;;;;;9.73;6.50;;;;;;;;;;5029675;28;20479;-59
2021/06/24 12:12:45;;;;;;;8.23;5.20;;;;;;;;;;5022163;28;20230;-59
2021/06/24 12:15:11;;;;;;;7.07;5.70;;;;;;;;;;5029722;28;20483;-59
2021/06/24 12:17:38;;;;;;;7.43;5.60;;;;;;;;;;5022306;28;20545;-59
2021/06/24 12:20:17;;;;;;;6.30;5.60;;;;;;;;;;5033737;28;20675;-58
2021/06/24 12:22:58;;;;;;;6.07;5.00;;;;;;;;;;5025102;28;20469;-59
2021/06/24 12:25:25;;;;;;;5.60;5.10;;;;;;;;;;5029726;28;20483;-59
2021/06/24 12:27:58;;;;;;;6.93;5.50;;;;;;;;;;5028351;28;20555;-59
2021/06/24 12:30:23;;;;;;;5.30;4.90;;;;;;;;;;5023049;28;20469;-59
2021/06/24 12:32:50;;;;;;;5.73;4.70;;;;;;;;;;5023255;28;20490;-60
2021/06/24 12:35:30;;;;;;;5.80;4.80;;;;;;;;;;5016525;28;20219;-60
2021/06/24 12:37:58;;;;;;;4.97;4.30;;;;;;;;;;5029842;28;20456;-60
2021/06/24 12:40:26;;;;;;;6.20;4.10;;;;;;;;;;5016616;28;20751;-59
2021/06/24 12:42:53;;;;;;;6.07;4.90;;;;;;;;;;5029356;28;20547;-64
2021/06/24 12:45:27;;;;;;;4.60;4.20;;;;;;;;;;5023518;28;20915;-62
2021/06/24 12:47:53;;;;;;;4.80;4.40;;;;;;;;;;5022500;28;20469;-62
2021/06/24 12:50:30;;;;;;;5.30;4.77;;;;;;;;;;5027302;28;20480;-64
2021/06/24 12:53:02;;;;;;;5.47;4.70;;;;;;;;;;5020747;28;20218;-63
2021/06/24 12:55:38;;;;;;;5.70;5.20;;;;;;;;;;5035017;28;20461;-63
2021/06/24 12:58:06;;;;;;;5.27;4.73;;;;;;;;;;5022357;28;20460;-63
2021/06/24 13:00:31;;;;;;;5.90;5.10;;;;;;;;;;5024152;28;20549;-63
2021/06/24 13:02:56;;;;;;;4.93;4.43;;;;;;;;;;5028807;28;20612;-61
2021/06/24 13:05:23;;;;;;;5.03;4.60;;;;;;;;;;5027407;28;20217;-64
2021/06/24 13:08:07;;;;;;;7.17;5.00;;;;;;;;;;5017226;28;20236;-63
2021/06/24 13:10:48;;;;;;;6.93;6.23;;;;;;;;;;5016542;28;20545;-62
2021/06/24 13:13:30;;;;;;;7.70;6.23;;;;;;;;;;5013615;28;20527;-63
2021/06/24 13:15:56;;;;;;;8.33;5.93;;;;;;;;;;5013490;28;20464;-63
2021/06/24 13:18:21;;;;;;;5.13;4.67;;;;;;;;;;5013968;28;20450;-62
2021/06/24 13:20:57;;;;;;;5.03;4.63;;;;;;;;;;5013710;28;20241;-62
2021/06/24 13:23:32;;;;;;;8.10;5.30;;;;;;;;;;5013634;28;20214;-63
2021/06/24 13:26:12;;;;;;;6.17;4.97;;;;;;;;;;5013403;28;20457;-62
2021/06/24 13:28:37;;;;;;;5.33;4.93;;;;;;;;;;5015204;28;20453;-62
2021/06/24 13:31:04;;;;;;;6.87;5.57;;;;;;;;;;5015563;28;20938;-62
2021/06/24 13:33:36;;;;;;;6.80;4.67;;;;;;;;;;5015878;28;20229;-63
2021/06/24 13:36:01;;;;;;;8.43;4.60;;;;;;;;;;5015451;28;20504;-62
2021/06/24 13:38:27;;;;;;;6.80;4.93;;;;;;;;;;5015734;28;20824;-62
2021/06/24 13:40:52;;;;;;;5.73;4.20;;;;;;;;;;5015661;28;20230;-62
2021/06/24 13:43:18;;;;;;;4.70;4.30;;;;;;;;;;5015318;28;20457;-61
2021/06/24 13:45:45;;;;;;;5.10;4.55;;;;;;;;;;5015506;28;20229;-63
2021/06/24 13:48:12;;;;;;;4.80;4.30;;;;;;;;;;5015182;28;20231;-62
2021/06/24 13:50:38;;;;;;;5.50;5.00;;;;;;;;;;5015536;28;20772;-62
2021/06/24 13:53:11;;;;;;;6.20;5.23;;;;;;;;;;5014969;28;20457;-61
2021/06/24 13:55:39;;;;;;;6.77;5.60;;;;;;;;;;5014460;28;20214;-62
2021/06/24 13:58:05;;;;;;;4.30;3.90;;;;;;;;;;5015020;28;20458;-62
2021/06/24 14:00:36;;;;;;;5.20;4.70;;;;;;;;;;5015262;28;20454;-62
2021/06/24 14:03:01;;;;;;;5.90;5.37;;;;;;;;;;5015163;28;20261;-62
2021/06/24 14:05:26;;;;;;;5.13;4.63;;;;;;;;;;5015056;28;20524;-62
2021/06/24 14:07:51;;;;;;;5.00;4.50;;;;;;;;;;5015003;28;20221;-63
2021/06/24 14:10:17;;;;;;;4.87;4.37;;;;;;;;;;5014633;28;20308;-62
2021/06/24 14:12:42;;;;;;;4.67;4.27;;;;;;;;;;5015034;28;20226;-62
2021/06/24 14:15:08;;;;;;;5.10;4.10;;;;;;;;;;5014828;28;20690;-62
2021/06/24 14:17:33;;;;;;;5.30;4.80;;;;;;;;;;5015101;28;20210;-62
2021/06/24 14:19:59;;;;;;;4.40;3.83;;;;;;;;;;5014585;28;20980;-62
2021/06/24 14:22:24;;;;;;;5.57;4.43;;;;;;;;;;5014098;28;20646;-62
2021/06/24 14:24:49;;;;;;;4.27;3.87;;;;;;;;;;5014805;28;20310;-63
2021/06/24 14:27:14;;;;;;;5.17;4.60;;;;;;;;;;5014290;28;20230;-61
2021/06/24 14:29:40;;;;;;;5.40;4.37;;;;;;;;;;5014751;28;20314;-62
2021/06/24 14:32:05;;;;;;;5.00;4.60;;;;;;;;;;5014429;28;20219;-62
2021/06/24 14:34:30;;;;;;;4.83;4.23;;;;;;;;;;5014740;28;20221;-63
2021/06/24 14:36:56;;;;;;;5.30;4.40;;;;;;;;;;5014684;28;20300;-62
2021/06/24 14:39:22;;;;;;;4.90;4.50;;;;;;;;;;5014041;28;20305;-63
2021/06/24 14:41:48;;;;;;;4.93;4.30;;;;;;;;;;5014583;28;20215;-63
2021/06/24 14:44:13;;;;;;;5.30;4.13;;;;;;;;;;5014394;28;20468;-62
2021/06/24 14:46:38;;;;;;;5.53;4.60;;;;;;;;;;5014583;28;20214;-62
2021/06/24 14:49:04;;;;;;;5.90;4.40;;;;;;;;;;5014144;28;20292;-62
2021/06/24 14:51:30;;;;;;;4.47;3.90;;;;;;;;;;5014427;28;20206;-62
2021/06/24 14:53:56;;;;;;;4.73;4.33;;;;;;;;;;5014609;28;20226;-63
2021/06/24 14:56:21;;;;;;;5.23;4.60;;;;;;;;;;5013703;28;20453;-62
2021/06/24 14:58:48;;;;;;;5.00;4.53;;;;;;;;;;5014368;28;20210;-63
2021/06/24 15:01:14;;;;;;;5.57;4.10;;;;;;;;;;5013797;28;20218;-62
2021/06/24 15:03:39;;;;;;;5.13;4.20;;;;;;;;;;5014532;28;20784;-63
2021/06/24 15:06:05;;;;;;;4.73;3.70;;;;;;;;;;5013775;28;20458;-62
2021/06/24 15:08:30;;;;;;;4.80;4.40;;;;;;;;;;5014430;28;20229;-63
2021/06/24 15:10:56;;;;;;;5.37;3.93;;;;;;;;;;5014225;28;20289;-63
2021/06/24 15:13:21;;;;;;;5.63;4.00;;;;;;;;;;5013842;28;20305;-62
2021/06/24 15:15:46;;;;;;;4.67;4.27;;;;;;;;;;5013072;28;20218;-62
2021/06/24 15:18:11;;;;;;;5.17;4.13;;;;;;;;;;5013984;28;20273;-62
2021/06/24 15:20:37;;;;;;;4.07;3.67;;;;;;;;;;5013852;28;20673;-62